Time;durP1;ratioP1;P1;durP2;ratioP2;P2;SDS_P1;SDS_P2;PMS_P1;PMS_P2;Temp;Humidity;BMP_temperature;BMP_pressure;BME280_temperature;BME280_humidity;BME280_pressure;Samples;Min_cycle;Max_cycle;Signal;HPM_P1;HPM_P2
2022/03/02 00:01:10;;;;;;;11.88;7.13;;;-2.40;99.90;;;;;;5034573;28;20110;-72
2022/03/02 00:03:42;;;;;;;10.85;7.25;;;-2.40;99.90;;;;;;5035369;28;20037;-71
2022/03/02 00:06:14;;;;;;;10.82;6.82;;;-2.40;99.90;;;;;;5035626;28;20072;-72
2022/03/02 00:08:46;;;;;;;8.55;6.47;;;-2.40;99.90;;;;;;5052281;28;20111;-71
2022/03/02 00:11:18;;;;;;;9.30;6.57;;;-2.40;99.90;;;;;;5052266;28;20047;-71
2022/03/02 00:13:45;;;;;;;8.52;6.65;;;-2.40;99.90;;;;;;5051574;28;20124;-71
2022/03/02 00:16:17;;;;;;;15.55;6.97;;;-2.40;99.90;;;;;;5051879;28;20619;-72
2022/03/02 00:18:44;;;;;;;11.48;7.22;;;-2.40;99.90;;;;;;5034537;28;20079;-72
2022/03/02 00:21:15;;;;;;;12.13;7.95;;;-2.50;99.90;;;;;;5018737;28;20049;-72
2022/03/02 00:23:42;;;;;;;11.73;7.07;;;-2.50;99.90;;;;;;5051814;28;20557;-72
2022/03/02 00:26:14;;;;;;;9.88;7.22;;;-2.50;99.90;;;;;;5034108;28;20131;-72
2022/03/02 00:28:46;;;;;;;14.05;7.07;;;-2.60;99.90;;;;;;5034024;28;20041;-72
2022/03/02 00:31:18;;;;;;;9.88;7.05;;;-2.60;99.90;;;;;;5038999;28;20759;-72
2022/03/02 00:33:49;;;;;;;12.73;7.20;;;-2.60;99.90;;;;;;5033763;28;20041;-72
2022/03/02 00:36:21;;;;;;;11.40;7.25;;;-2.60;99.90;;;;;;5033821;28;20044;-71
2022/03/02 00:38:48;;;;;;;11.35;7.43;;;-2.60;99.90;;;;;;5033781;28;20473;-72
2022/03/02 00:41:20;;;;;;;11.57;7.47;;;-2.60;99.90;;;;;;5033685;28;20041;-72
2022/03/02 00:43:52;;;;;;;14.75;8.02;;;-2.60;99.90;;;;;;5017905;28;20059;-72
2022/03/02 00:46:19;;;;;;;11.98;8.10;;;-2.60;99.90;;;;;;5051400;28;20103;-72
2022/03/02 00:48:51;;;;;;;12.60;8.40;;;-2.60;99.90;;;;;;5033588;28;20411;-71
2022/03/02 00:51:18;;;;;;;12.55;8.80;;;-2.60;99.90;;;;;;5034062;28;20114;-72
2022/03/02 00:53:51;;;;;;;15.68;9.68;;;-2.70;99.90;;;;;;5053609;28;20090;-71
2022/03/02 00:56:23;;;;;;;14.10;9.73;;;-2.70;99.90;;;;;;5049477;28;20061;-72
2022/03/02 00:58:55;;;;;;;15.13;9.85;;;-2.80;99.90;;;;;;5040538;28;20897;-72
2022/03/02 01:01:21;;;;;;;11.60;8.18;;;-2.80;99.90;;;;;;5031028;28;20072;-72
2022/03/02 01:03:53;;;;;;;14.27;9.02;;;-2.80;99.90;;;;;;5028811;28;20076;-72
2022/03/02 01:06:25;;;;;;;12.40;8.45;;;-2.90;99.90;;;;;;5069633;28;20125;-72
2022/03/02 01:08:52;;;;;;;15.05;9.02;;;-2.90;99.90;;;;;;5047259;28;20080;-72
2022/03/02 01:11:19;;;;;;;12.93;8.13;;;-2.90;99.90;;;;;;5021177;28;20041;-72
2022/03/02 01:13:51;;;;;;;14.25;8.50;;;-3.00;99.90;;;;;;5049697;28;20129;-72
2022/03/02 01:16:17;;;;;;;14.75;8.70;;;-3.00;99.90;;;;;;5033849;28;20076;-71
2022/03/02 01:18:49;;;;;;;12.82;8.05;;;-3.00;99.90;;;;;;5035115;28;20112;-72
2022/03/02 01:21:21;;;;;;;15.73;8.70;;;-3.00;99.90;;;;;;5034011;28;20132;-72
2022/03/02 01:23:56;;;;;;;11.27;8.15;;;-3.00;99.90;;;;;;5051199;28;20041;-72
2022/03/02 01:26:29;;;;;;;13.18;8.05;;;-3.10;99.90;;;;;;5017556;28;20127;-72
2022/03/02 01:29:01;;;;;;;11.18;8.27;;;-3.20;99.90;;;;;;5017441;28;20040;-71
2022/03/02 01:31:33;;;;;;;18.05;8.45;;;-3.20;99.90;;;;;;5017892;28;20140;-72
2022/03/02 01:33:59;;;;;;;11.32;7.20;;;-3.20;99.90;;;;;;5050830;28;20121;-72
2022/03/02 01:36:26;;;;;;;10.35;6.95;;;-3.20;99.90;;;;;;5051153;28;20128;-72
2022/03/02 01:38:58;;;;;;;9.32;6.70;;;-3.20;99.90;;;;;;5051494;28;20041;-72
2022/03/02 01:41:30;;;;;;;9.95;6.97;;;-3.20;99.90;;;;;;5051150;28;20123;-72
2022/03/02 01:43:56;;;;;;;8.70;6.45;;;-3.20;99.90;;;;;;5051146;28;20076;-72
2022/03/02 01:46:30;;;;;;;10.32;6.63;;;-3.20;99.90;;;;;;5031915;28;20047;-72
2022/03/02 01:48:57;;;;;;;9.50;6.90;;;-3.20;99.90;;;;;;5051381;28;20064;-72
2022/03/02 01:51:23;;;;;;;10.55;6.78;;;-3.20;99.90;;;;;;5032195;28;20041;-72
2022/03/02 01:53:50;;;;;;;11.80;7.55;;;-3.20;99.90;;;;;;5049746;28;20076;-72
2022/03/02 01:56:22;;;;;;;11.43;6.82;;;-3.30;99.90;;;;;;5033757;28;20571;-72
2022/03/02 01:58:54;;;;;;;11.25;7.72;;;-3.30;99.90;;;;;;5034635;28;20122;-72
2022/03/02 02:01:27;;;;;;;13.73;8.02;;;-3.30;99.90;;;;;;5050930;28;20051;-72
2022/03/02 02:03:54;;;;;;;13.55;9.40;;;-3.30;99.90;;;;;;5032825;28;20415;-72
2022/03/02 02:06:25;;;;;;;10.75;8.10;;;-3.30;99.90;;;;;;5017381;28;20055;-72
2022/03/02 02:08:59;;;;;;;12.73;8.80;;;-3.40;99.90;;;;;;5016918;28;20080;-72
2022/03/02 02:11:32;;;;;;;14.30;7.90;;;-3.40;99.90;;;;;;5050522;28;20048;-73
2022/03/02 02:14:04;;;;;;;10.35;6.53;;;-3.40;99.90;;;;;;5050239;28;20483;-72
2022/03/02 02:16:36;;;;;;;11.45;7.40;;;-3.40;99.90;;;;;;5050243;28;20123;-72
2022/03/02 02:19:08;;;;;;;13.68;8.13;;;-3.40;99.90;;;;;;5050927;28;20045;-72
2022/03/02 02:21:40;;;;;;;14.80;7.80;;;-3.40;99.90;;;;;;5017101;28;20144;-72
2022/03/02 02:24:12;;;;;;;21.80;10.48;;;-3.40;99.90;;;;;;5016578;28;20041;-72
2022/03/02 02:26:44;;;;;;;16.33;9.23;;;-3.50;99.90;;;;;;5032459;28;20132;-73
2022/03/02 02:29:17;;;;;;;17.15;9.70;;;-3.60;99.90;;;;;;5050556;28;20120;-72
2022/03/02 02:31:49;;;;;;;17.63;11.38;;;-3.70;99.90;;;;;;5033620;28;20165;-72
2022/03/02 02:34:16;;;;;;;17.40;10.85;;;-3.80;99.90;;;;;;5050226;28;20073;-72
2022/03/02 02:36:43;;;;;;;19.60;10.90;;;-3.80;99.90;;;;;;5050547;28;20091;-72
2022/03/02 02:39:15;;;;;;;18.38;11.15;;;-3.80;99.90;;;;;;5032120;28;20037;-72
2022/03/02 02:41:47;;;;;;;17.88;11.35;;;-3.80;99.90;;;;;;5033246;28;20124;-72
2022/03/02 02:44:18;;;;;;;18.30;9.70;;;-3.70;99.90;;;;;;5050258;28;20049;-72
2022/03/02 02:46:50;;;;;;;17.88;11.18;;;-3.70;99.90;;;;;;5050154;28;20586;-72
2022/03/02 02:49:22;;;;;;;18.88;9.88;;;-3.70;99.90;;;;;;5050186;28;20045;-72
2022/03/02 02:51:54;;;;;;;19.27;11.73;;;-3.70;99.90;;;;;;5032509;28;20049;-72
2022/03/02 02:54:21;;;;;;;17.70;11.60;;;-3.70;99.90;;;;;;5032231;28;20131;-72
2022/03/02 02:56:53;;;;;;;19.98;12.15;;;-3.60;99.90;;;;;;5050572;28;20091;-72
2022/03/02 02:59:25;;;;;;;17.48;10.50;;;-3.70;99.90;;;;;;5035001;28;20043;-72
2022/03/02 03:01:57;;;;;;;18.92;11.32;;;-3.60;99.90;;;;;;5020641;28;20132;-72
2022/03/02 03:04:28;;;;;;;17.30;10.80;;;-3.60;99.90;;;;;;5035410;28;20048;-72
2022/03/02 03:07:00;;;;;;;15.77;10.75;;;-3.60;99.90;;;;;;5053994;28;20047;-72
2022/03/02 03:09:33;;;;;;;18.67;11.35;;;-3.70;99.90;;;;;;5035723;28;20055;-72
2022/03/02 03:11:59;;;;;;;15.88;10.20;;;-3.70;99.90;;;;;;5036158;28;20072;-72
2022/03/02 03:14:26;;;;;;;17.38;10.88;;;-3.70;99.90;;;;;;5019133;28;20492;-72
2022/03/02 03:16:58;;;;;;;17.75;10.68;;;-3.80;99.90;;;;;;5054017;28;20037;-72
2022/03/02 03:19:30;;;;;;;16.63;10.07;;;-3.80;99.90;;;;;;5036973;28;20065;-72
2022/03/02 03:22:06;;;;;;;15.32;9.88;;;-3.80;99.90;;;;;;5020258;28;20132;-72
2022/03/02 03:24:37;;;;;;;15.27;10.02;;;-3.80;99.90;;;;;;5019694;28;20049;-72
2022/03/02 03:27:04;;;;;;;18.70;10.13;;;-3.80;99.90;;;;;;5053431;28;20049;-72
2022/03/02 03:29:36;;;;;;;16.63;10.20;;;-3.80;99.90;;;;;;5052913;28;20045;-72
2022/03/02 03:32:03;;;;;;;18.13;11.73;;;-3.80;99.90;;;;;;5035618;28;20041;-72
2022/03/02 03:34:35;;;;;;;17.95;10.45;;;-3.90;99.90;;;;;;5035251;28;20041;-72
2022/03/02 03:37:08;;;;;;;15.02;9.50;;;-3.90;99.90;;;;;;5035333;28;20124;-72
2022/03/02 03:39:42;;;;;;;16.73;9.90;;;-3.80;99.90;;;;;;5035659;28;20128;-73
2022/03/02 03:42:14;;;;;;;16.05;9.82;;;-3.90;99.90;;;;;;5036668;28;20083;-72
2022/03/02 03:44:46;;;;;;;17.60;10.18;;;-3.80;99.90;;;;;;5053692;28;20446;-72
2022/03/02 03:47:18;;;;;;;17.92;9.50;;;-3.80;99.90;;;;;;5036128;28;20048;-72
2022/03/02 03:49:50;;;;;;;15.30;9.55;;;-3.90;99.90;;;;;;5035171;28;20060;-72
2022/03/02 03:52:17;;;;;;;15.35;9.63;;;-3.90;99.90;;;;;;5034585;28;20088;-72
2022/03/02 03:54:49;;;;;;;15.45;9.38;;;-3.90;99.90;;;;;;5035231;28;20055;-72
2022/03/02 03:57:15;;;;;;;15.30;10.43;;;-3.90;99.90;;;;;;5035283;28;20064;-73
2022/03/02 03:59:42;;;;;;;15.70;10.63;;;-3.90;99.90;;;;;;5035530;28;20083;-72
2022/03/02 04:02:09;;;;;;;18.70;11.40;;;-3.90;99.90;;;;;;5035183;28;20064;-72
2022/03/02 04:04:41;;;;;;;14.75;9.27;;;-3.90;99.90;;;;;;5019369;28;20144;-72
2022/03/02 04:07:13;;;;;;;17.40;10.43;;;-3.90;99.90;;;;;;5053224;28;20040;-72
2022/03/02 04:09:44;;;;;;;14.73;9.88;;;-3.90;99.90;;;;;;5052929;28;20080;-72
2022/03/02 04:12:17;;;;;;;16.23;10.00;;;-4.00;99.90;;;;;;5035067;28;20444;-72
2022/03/02 04:14:45;;;;;;;26.23;10.82;;;-4.00;99.90;;;;;;5034415;28;20076;-72
2022/03/02 04:17:16;;;;;;;15.48;10.57;;;-4.00;99.90;;;;;;5034591;28;20144;-72
2022/03/02 04:19:48;;;;;;;16.27;10.32;;;-4.00;99.90;;;;;;5019867;28;20047;-72
2022/03/02 04:22:16;;;;;;;16.35;10.30;;;-4.00;99.90;;;;;;5018827;28;20087;-72
2022/03/02 04:24:48;;;;;;;18.73;9.27;;;-4.00;99.90;;;;;;5034950;28;20045;-72
2022/03/02 04:27:15;;;;;;;16.35;11.07;;;-4.00;99.90;;;;;;5018567;28;20083;-71
2022/03/02 04:29:46;;;;;;;18.13;10.40;;;-4.00;99.90;;;;;;5052977;28;20045;-72
2022/03/02 04:32:18;;;;;;;21.63;11.88;;;-4.00;99.90;;;;;;5035047;28;20047;-72
2022/03/02 04:34:50;;;;;;;17.52;11.27;;;-4.00;99.90;;;;;;5035232;28;20061;-72
2022/03/02 04:37:21;;;;;;;21.30;11.90;;;-4.00;99.90;;;;;;5034946;28;20041;-72
2022/03/02 04:39:54;;;;;;;21.95;11.07;;;-4.00;99.90;;;;;;5052608;28;20091;-72
2022/03/02 04:42:20;;;;;;;19.08;11.35;;;-4.10;99.90;;;;;;5034552;28;20407;-72
2022/03/02 04:44:47;;;;;;;20.08;11.43;;;-4.10;99.90;;;;;;5034835;28;20571;-72
2022/03/02 04:47:19;;;;;;;19.20;11.95;;;-4.10;99.90;;;;;;5052549;28;20037;-72
2022/03/02 04:49:51;;;;;;;20.92;12.45;;;-4.10;99.90;;;;;;5052015;28;20595;-72
2022/03/02 04:52:23;;;;;;;17.23;11.15;;;-4.00;99.90;;;;;;5018408;28;20124;-72
2022/03/02 04:55:07;;;;;;;18.23;11.27;;;-4.10;99.90;;;;;;5035334;28;20044;-72
2022/03/02 04:57:54;;;;;;;18.90;10.27;;;-4.10;99.90;;;;;;5034255;28;20500;-72
2022/03/02 05:00:31;;;;;;;17.63;10.18;;;-4.10;99.90;;;;;;5034104;28;20518;-72
2022/03/02 05:03:05;;;;;;;15.15;8.70;;;-4.10;99.90;;;;;;5033357;28;20055;-72
2022/03/02 05:05:38;;;;;;;12.52;7.13;;;-4.10;99.90;;;;;;5017693;28;20059;-72
2022/03/02 05:08:10;;;;;;;17.63;9.60;;;-4.10;99.90;;;;;;5018184;28;20144;-72
2022/03/02 05:10:42;;;;;;;17.70;10.30;;;-4.10;99.90;;;;;;5017247;28;20073;-72
2022/03/02 05:13:14;;;;;;;21.90;11.32;;;-4.10;99.90;;;;;;5034480;28;20453;-71
2022/03/02 05:15:40;;;;;;;19.48;11.20;;;-4.10;99.90;;;;;;5033898;28;20468;-72
2022/03/02 05:18:12;;;;;;;26.80;13.70;;;-4.00;99.90;;;;;;5033943;28;20084;-72
2022/03/02 05:20:44;;;;;;;28.27;14.68;;;-4.00;99.90;;;;;;5051775;28;20029;-72
2022/03/02 05:23:15;;;;;;;28.52;13.38;;;-4.10;99.90;;;;;;5050498;28;20049;-72
2022/03/02 05:25:47;;;;;;;29.65;13.07;;;-4.10;99.90;;;;;;5049504;28;20409;-72
2022/03/02 05:28:19;;;;;;;21.80;12.30;;;-4.10;99.90;;;;;;5033114;28;20047;-72
2022/03/02 05:30:51;;;;;;;26.25;13.88;;;-4.10;99.90;;;;;;5034712;28;20496;-72
2022/03/02 05:33:17;;;;;;;33.97;15.88;;;-4.20;99.90;;;;;;5051088;28;20071;-72
2022/03/02 05:35:44;;;;;;;26.67;14.00;;;-4.20;99.90;;;;;;5017761;28;20465;-72
2022/03/02 05:38:11;;;;;;;25.55;14.98;;;-4.20;99.90;;;;;;5030885;28;20041;-71
2022/03/02 05:40:38;;;;;;;25.23;15.23;;;-4.20;99.90;;;;;;5043308;28;20041;-72
2022/03/02 05:43:04;;;;;;;26.00;14.40;;;-4.30;99.90;;;;;;5035675;28;20148;-72
2022/03/02 05:45:36;;;;;;;22.02;13.25;;;-4.30;99.90;;;;;;5049887;28;20057;-72
2022/03/02 05:48:03;;;;;;;22.40;12.18;;;-4.30;99.90;;;;;;5036366;28;20137;-72
2022/03/02 05:50:35;;;;;;;20.20;10.07;;;-4.30;99.90;;;;;;5031821;28;20358;-72
2022/03/02 05:53:07;;;;;;;19.60;10.77;;;-4.40;99.90;;;;;;5045019;28;20033;-72
2022/03/02 05:55:33;;;;;;;17.17;10.57;;;-4.40;99.90;;;;;;5024353;28;20108;-72
2022/03/02 05:58:05;;;;;;;18.10;9.93;;;-4.30;99.90;;;;;;5042565;28;20045;-72
2022/03/02 06:00:32;;;;;;;13.95;9.43;;;-4.30;99.90;;;;;;5041479;28;20033;-71
2022/03/02 06:03:03;;;;;;;16.67;10.45;;;-4.30;99.90;;;;;;5033423;28;20037;-72
2022/03/02 06:05:30;;;;;;;16.60;9.88;;;-4.20;99.90;;;;;;5035373;28;20064;-72
2022/03/02 06:07:57;;;;;;;20.40;11.18;;;-4.20;99.90;;;;;;5070210;28;20127;-72
2022/03/02 06:10:25;;;;;;;17.67;10.50;;;-4.20;99.90;;;;;;5070373;28;20075;-72
2022/03/02 06:12:52;;;;;;;28.63;12.10;;;-4.10;99.90;;;;;;5053811;28;20457;-72
2022/03/02 06:15:24;;;;;;;23.25;11.73;;;-4.10;99.90;;;;;;5016406;28;20384;-72
2022/03/02 06:18:00;;;;;;;27.75;11.43;;;-4.10;99.90;;;;;;5049703;28;20048;-71
2022/03/02 06:20:33;;;;;;;22.63;13.55;;;-4.00;99.90;;;;;;5057120;28;20040;-72
2022/03/02 06:23:05;;;;;;;34.85;15.32;;;-4.00;99.90;;;;;;5049265;28;20052;-72
2022/03/02 06:25:37;;;;;;;37.75;18.25;;;-4.00;99.90;;;;;;5032973;28;20033;-72
2022/03/02 06:28:09;;;;;;;37.88;20.13;;;-3.90;99.90;;;;;;5016760;28;20045;-72
2022/03/02 06:30:40;;;;;;;34.35;17.45;;;-3.90;99.90;;;;;;5016504;28;20139;-72
2022/03/02 06:33:16;;;;;;;33.47;17.27;;;-3.90;99.90;;;;;;5030658;28;20041;-72
2022/03/02 06:35:49;;;;;;;33.38;17.35;;;-3.80;99.90;;;;;;5035795;28;20123;-72
2022/03/02 06:38:22;;;;;;;34.30;18.67;;;-3.80;99.90;;;;;;5052765;28;20041;-72
2022/03/02 06:41:01;;;;;;;24.27;15.10;;;-3.80;99.90;;;;;;5053188;28;20037;-72
2022/03/02 06:43:50;;;;;;;28.23;15.50;;;-3.70;99.90;;;;;;5033873;28;20083;-72
2022/03/02 06:46:59;;;;;;;33.53;17.48;;;-3.70;99.90;;;;;;5049732;28;20348;-71
2022/03/02 06:49:44;;;;;;;41.65;20.25;;;-3.70;99.90;;;;;;5044387;28;20033;-71
2022/03/02 06:52:15;;;;;;;26.35;16.20;;;-3.70;99.90;;;;;;5046311;28;20124;-72
2022/03/02 06:54:46;;;;;;;28.40;16.67;;;-3.80;99.90;;;;;;5051227;28;20120;-72
2022/03/02 06:57:19;;;;;;;26.83;16.65;;;-3.70;99.90;;;;;;5052641;28;20127;-71
2022/03/02 06:59:53;;;;;;;24.20;13.18;;;-3.70;99.90;;;;;;5036191;28;20051;-72
2022/03/02 07:02:39;;;;;;;56.78;30.85;;;-3.70;99.90;;;;;;5035112;28;20037;-72
2022/03/02 07:05:11;;;;;;;42.65;24.15;;;-3.60;99.90;;;;;;5070106;28;20137;-72
2022/03/02 07:07:38;;;;;;;39.67;22.42;;;-3.60;99.90;;;;;;5038976;28;20098;-71
2022/03/02 07:10:07;;;;;;;36.65;22.27;;;-3.60;99.90;;;;;;5042169;28;20079;-72
2022/03/02 07:12:34;;;;;;;34.05;21.30;;;-3.50;99.90;;;;;;5041226;28;20164;-72
2022/03/02 07:15:08;;;;;;;33.10;20.58;;;-3.50;99.90;;;;;;5050988;28;20043;-72
2022/03/02 07:17:37;;;;;;;33.95;18.58;;;-3.50;99.90;;;;;;5029138;28;20065;-73
2022/03/02 07:20:11;;;;;;;28.88;17.13;;;-3.40;99.90;;;;;;5053755;28;20037;-75
2022/03/02 07:22:51;;;;;;;34.58;17.40;;;-3.40;99.90;;;;;;5047232;28;20041;-71
2022/03/02 07:25:27;;;;;;;29.38;18.58;;;-3.40;99.90;;;;;;5069935;28;20079;-72
2022/03/02 07:28:01;;;;;;;26.17;18.60;;;-3.30;99.90;;;;;;5049240;28;20075;-72
2022/03/02 07:30:28;;;;;;;34.22;19.10;;;-3.20;99.90;;;;;;5043955;28;20094;-72
2022/03/02 07:33:02;;;;;;;28.75;18.02;;;-3.20;99.90;;;;;;5070104;28;20131;-72
2022/03/02 07:35:37;;;;;;;31.40;19.52;;;-3.10;99.90;;;;;;5034241;28;20029;-72
2022/03/02 07:38:09;;;;;;;30.10;18.05;;;-3.00;99.90;;;;;;5046458;28;20096;-72
2022/03/02 07:40:42;;;;;;;76.03;41.80;;;-2.90;99.90;;;;;;4970077;28;1257837;-72
2022/03/02 07:43:15;;;;;;;54.35;28.17;;;-2.80;99.90;;;;;;5038014;28;20129;-72
2022/03/02 07:45:47;;;;;;;32.53;17.73;;;-2.70;99.90;;;;;;5054398;28;20051;-72
2022/03/02 07:48:19;;;;;;;28.88;18.08;;;-2.60;99.90;;;;;;5035658;28;20037;-71
2022/03/02 07:50:51;;;;;;;30.85;18.58;;;-2.50;99.90;;;;;;5053142;28;20036;-72
2022/03/02 07:53:26;;;;;;;34.85;18.83;;;-2.50;99.90;;;;;;5035336;28;20086;-72
2022/03/02 07:55:58;;;;;;;30.85;21.23;;;-2.40;99.90;;;;;;5052573;28;20423;-72
2022/03/02 07:58:31;;;;;;;31.95;19.00;;;-2.30;99.90;;;;;;5053204;28;20056;-72
2022/03/02 08:00:59;;;;;;;27.52;16.67;;;-2.30;99.90;;;;;;5053558;28;20064;-72
2022/03/02 08:03:37;;;;;;;25.00;13.02;;;-2.20;99.90;;;;;;5051973;28;20547;-71
2022/03/02 08:06:05;;;;;;;26.95;13.48;;;-2.20;99.90;;;;;;5035030;28;20045;-72
2022/03/02 08:08:38;;;;;;;22.13;12.07;;;-2.10;99.90;;;;;;5052828;28;20555;-72
2022/03/02 08:11:05;;;;;;;21.52;14.45;;;-2.10;99.90;;;;;;5052146;28;20128;-72
2022/03/02 08:13:37;;;;;;;21.63;13.30;;;-2.00;99.90;;;;;;5066637;28;20037;-72
2022/03/02 08:16:10;;;;;;;26.50;14.85;;;-2.00;99.90;;;;;;5051691;28;20128;-72
2022/03/02 08:18:42;;;;;;;34.08;15.27;;;-2.00;99.90;;;;;;5038424;28;20037;-73
2022/03/02 08:21:18;;;;;;;27.30;13.88;;;-1.90;99.90;;;;;;5061327;28;20044;-72
2022/03/02 08:23:51;;;;;;;23.33;14.07;;;-1.80;99.90;;;;;;5018526;28;20046;-72
2022/03/02 08:26:23;;;;;;;20.40;13.82;;;-1.70;99.90;;;;;;5049182;28;20040;-71
2022/03/02 08:29:02;;;;;;;25.02;14.32;;;-1.60;99.90;;;;;;5017972;28;20059;-72
2022/03/02 08:31:30;;;;;;;25.65;13.95;;;-1.60;99.90;;;;;;5050909;28;20045;-71
2022/03/02 08:34:03;;;;;;;25.67;14.88;;;-1.60;99.90;;;;;;5035036;28;20051;-72
2022/03/02 08:36:36;;;;;;;24.13;14.43;;;-1.50;99.90;;;;;;5035343;28;20124;-71
2022/03/02 08:39:11;;;;;;;22.23;13.70;;;-1.50;99.90;;;;;;5034024;28;20095;-72
2022/03/02 08:41:39;;;;;;;23.63;13.70;;;-1.40;99.90;;;;;;5020177;28;20049;-72
2022/03/02 08:44:12;;;;;;;21.67;13.13;;;-1.30;99.90;;;;;;5047138;28;20550;-72
2022/03/02 08:46:46;;;;;;;22.15;13.13;;;-1.20;99.90;;;;;;5055489;28;20151;-72
2022/03/02 08:49:20;;;;;;;23.80;13.88;;;-1.10;99.90;;;;;;5018547;28;20135;-72
2022/03/02 08:51:55;;;;;;;21.02;13.82;;;-1.00;99.90;;;;;;5027652;28;20049;-72
2022/03/02 08:54:34;;;;;;;27.42;15.20;;;-1.00;99.90;;;;;;5032108;28;20041;-71
2022/03/02 08:57:06;;;;;;;24.42;15.23;;;-0.80;99.90;;;;;;5051085;28;20040;-72
2022/03/02 08:59:34;;;;;;;23.60;13.95;;;-0.60;99.90;;;;;;5035473;28;20069;-72
2022/03/02 09:02:06;;;;;;;20.80;13.77;;;-0.50;99.90;;;;;;5036423;28;20070;-72
2022/03/02 09:04:38;;;;;;;19.42;12.23;;;-0.40;99.90;;;;;;5017917;28;20063;-72
2022/03/02 09:07:06;;;;;;;21.23;14.02;;;-0.30;99.90;;;;;;5051658;28;20068;-73
2022/03/02 09:09:39;;;;;;;32.97;18.27;;;-0.30;99.90;;;;;;5057531;28;20523;-72
2022/03/02 09:12:13;;;;;;;24.85;16.23;;;-0.10;99.90;;;;;;5045000;28;20139;-72
2022/03/02 09:14:40;;;;;;;19.17;13.02;;;0.00;99.90;;;;;;5038577;28;20459;-72
2022/03/02 09:17:12;;;;;;;19.40;13.70;;;0.10;99.90;;;;;;5054478;28;20055;-72
2022/03/02 09:19:39;;;;;;;23.88;13.80;;;0.20;99.90;;;;;;5048775;28;20064;-72
2022/03/02 09:22:12;;;;;;;23.45;13.23;;;0.20;99.90;;;;;;5034315;28;20125;-72
2022/03/02 09:24:44;;;;;;;22.38;13.90;;;0.30;99.90;;;;;;5028672;28;20466;-72
2022/03/02 09:27:20;;;;;;;15.23;10.30;;;0.40;99.90;;;;;;5045406;28;20137;-72
2022/03/02 09:29:56;;;;;;;25.95;13.73;;;0.60;99.90;;;;;;5051522;28;20311;-72
2022/03/02 09:32:24;;;;;;;19.92;12.73;;;0.60;99.90;;;;;;5013815;28;20137;-72
2022/03/02 09:34:57;;;;;;;18.83;12.53;;;0.70;99.90;;;;;;5031522;28;20055;-72
2022/03/02 09:37:35;;;;;;;21.23;12.60;;;0.80;99.90;;;;;;5037866;28;20067;-72
2022/03/02 09:40:04;;;;;;;19.15;12.32;;;0.90;99.90;;;;;;5033200;28;20061;-72
2022/03/02 09:42:45;;;;;;;18.00;11.00;;;1.00;99.90;;;;;;5049806;28;20040;-72
2022/03/02 09:45:21;;;;;;;15.90;11.30;;;1.10;99.90;;;;;;5032967;28;20147;-72
2022/03/02 09:47:56;;;;;;;19.10;11.95;;;1.30;99.90;;;;;;5048499;28;20059;-72
2022/03/02 09:50:31;;;;;;;19.13;12.77;;;1.40;99.90;;;;;;5050068;28;20463;-72
2022/03/02 09:53:12;;;;;;;17.92;10.77;;;1.50;99.90;;;;;;5051236;28;20467;-72
2022/03/02 09:55:44;;;;;;;16.23;11.38;;;1.50;99.90;;;;;;5050971;28;20127;-73
2022/03/02 09:58:20;;;;;;;18.15;11.65;;;1.60;99.90;;;;;;5017149;28;20033;-72
2022/03/02 10:00:47;;;;;;;19.95;11.60;;;1.70;99.90;;;;;;5032820;28;20140;-72
2022/03/02 10:03:19;;;;;;;18.55;11.00;;;1.90;99.90;;;;;;5047616;28;20500;-72
2022/03/02 10:05:53;;;;;;;24.38;11.70;;;2.10;99.90;;;;;;5052309;28;20072;-72
2022/03/02 10:08:30;;;;;;;15.75;10.32;;;2.20;99.90;;;;;;5054313;28;20033;-72
2022/03/02 10:11:06;;;;;;;15.60;10.65;;;2.20;99.90;;;;;;5050020;28;20511;-72
2022/03/02 10:13:38;;;;;;;16.35;10.50;;;2.40;99.90;;;;;;5028931;28;20373;-72
2022/03/02 10:16:22;;;;;;;14.77;9.45;;;2.50;99.90;;;;;;5046040;28;20120;-72
2022/03/02 10:19:00;;;;;;;16.77;9.48;;;2.60;99.90;;;;;;5010583;28;20034;-72
2022/03/02 10:21:32;;;;;;;16.17;10.82;;;2.60;99.90;;;;;;5047325;28;20037;-71
2022/03/02 10:24:04;;;;;;;20.98;11.15;;;2.70;99.90;;;;;;5042290;28;20041;-71
2022/03/02 10:26:49;;;;;;;15.05;9.77;;;2.70;99.90;;;;;;5031609;28;20048;-72
2022/03/02 10:29:56;;;;;;;14.73;10.55;;;2.80;99.90;;;;;;5034340;28;20539;-73
2022/03/02 10:32:35;;;;;;;14.70;10.15;;;2.90;99.90;;;;;;5025515;28;20095;-72
2022/03/02 10:35:13;;;;;;;15.10;10.57;;;3.10;99.90;;;;;;5032665;28;20049;-72
2022/03/02 10:38:01;;;;;;;15.02;10.07;;;3.30;99.90;;;;;;5017571;28;20131;-72
2022/03/02 10:40:35;;;;;;;18.55;11.38;;;3.50;99.90;;;;;;5051192;28;20033;-72
2022/03/02 10:43:10;;;;;;;17.20;9.70;;;3.70;99.90;;;;;;5036211;28;20501;-72
2022/03/02 10:45:44;;;;;;;12.32;8.15;;;3.80;99.90;;;;;;5024589;28;20045;-72
2022/03/02 10:48:38;;;;;;;;;;;4.00;99.90;;;;;;5047548;28;20522;-72
2022/03/02 10:51:10;;;;;;;15.90;8.90;;;4.20;99.90;;;;;;5049227;28;19920;-71
2022/03/02 10:53:46;;;;;;;13.43;8.65;;;4.30;99.90;;;;;;5063366;28;20163;-72
2022/03/02 10:56:17;;;;;;;16.67;10.70;;;4.30;99.90;;;;;;5047172;28;20037;-72
2022/03/02 10:58:49;;;;;;;13.77;9.13;;;4.40;99.90;;;;;;5029934;28;20071;-72
2022/03/02 11:01:22;;;;;;;12.98;9.98;;;4.40;99.90;;;;;;5030653;28;20048;-72
2022/03/02 11:03:49;;;;;;;14.57;9.95;;;4.40;99.90;;;;;;5044816;28;20120;-72
2022/03/02 11:06:17;;;;;;;19.42;11.32;;;4.50;99.90;;;;;;5047202;28;20476;-72
2022/03/02 11:08:50;;;;;;;13.32;9.95;;;4.60;99.90;;;;;;5044904;28;20049;-72
2022/03/02 11:11:26;;;;;;;14.10;10.55;;;4.70;99.90;;;;;;5045644;28;20056;-72
2022/03/02 11:13:55;;;;;;;14.68;10.10;;;4.70;99.90;;;;;;5048052;28;20650;-72
2022/03/02 11:16:27;;;;;;;15.80;10.63;;;4.80;99.90;;;;;;5048752;28;20060;-72
2022/03/02 11:18:54;;;;;;;13.63;10.75;;;4.90;99.90;;;;;;5049597;28;20087;-72
2022/03/02 11:21:31;;;;;;;13.35;9.50;;;4.90;99.90;;;;;;5053351;28;20459;-72
2022/03/02 11:24:05;;;;;;;17.30;10.35;;;4.90;99.90;;;;;;5052682;28;20589;-72
2022/03/02 11:26:39;;;;;;;15.85;10.25;;;4.90;99.90;;;;;;5034929;28;20334;-72
2022/03/02 11:29:18;;;;;;;21.40;11.30;;;5.00;99.90;;;;;;5035270;28;20220;-72
2022/03/02 11:31:46;;;;;;;14.27;9.63;;;5.10;99.90;;;;;;5041475;28;20448;-72
2022/03/02 11:34:20;;;;;;;12.70;9.18;;;5.10;99.90;;;;;;5055516;28;20079;-72
2022/03/02 11:36:59;;;;;;;16.95;9.68;;;5.20;97.90;;;;;;5057657;28;20087;-72
2022/03/02 11:39:31;;;;;;;11.35;7.32;;;5.30;97.40;;;;;;5035048;28;20120;-72
2022/03/02 11:42:06;;;;;;;10.13;7.57;;;5.40;98.10;;;;;;5034408;28;20045;-72
2022/03/02 11:44:43;;;;;;;9.02;6.70;;;5.40;96.10;;;;;;5048926;28;20048;-72
2022/03/02 11:47:15;;;;;;;9.65;6.75;;;5.60;93.70;;;;;;5047536;28;20049;-72
2022/03/02 11:49:50;;;;;;;9.38;6.13;;;5.60;91.70;;;;;;5035742;28;20055;-72
2022/03/02 11:52:25;;;;;;;10.65;6.85;;;5.60;92.30;;;;;;5052436;28;20061;-72
2022/03/02 11:55:09;;;;;;;10.25;6.95;;;5.70;92.50;;;;;;5034827;28;20033;-72
2022/03/02 11:57:48;;;;;;;12.13;7.38;;;5.70;90.10;;;;;;5033527;28;20041;-72
2022/03/02 12:00:23;;;;;;;10.80;7.20;;;5.70;90.40;;;;;;5035400;28;20037;-72
2022/03/02 12:02:57;;;;;;;11.82;7.45;;;5.70;91.50;;;;;;5054385;28;20033;-72
2022/03/02 12:05:32;;;;;;;11.98;7.18;;;5.80;90.60;;;;;;5039986;28;20041;-72
2022/03/02 12:08:11;;;;;;;11.88;7.28;;;5.80;88.90;;;;;;5034244;28;20041;-72
2022/03/02 12:10:41;;;;;;;10.43;7.63;;;5.80;89.20;;;;;;5052756;28;20805;-72
2022/03/02 12:13:15;;;;;;;13.52;7.78;;;5.80;90.10;;;;;;5034549;28;20442;-72
2022/03/02 12:15:55;;;;;;;11.45;7.15;;;5.80;87.90;;;;;;5034576;28;20045;-72
2022/03/02 12:18:27;;;;;;;12.80;7.32;;;5.80;88.00;;;;;;5033589;28;20033;-72
2022/03/02 12:20:58;;;;;;;9.30;7.63;;;5.80;88.80;;;;;;5050002;28;20037;-72
2022/03/02 12:23:33;;;;;;;10.55;7.47;;;5.90;88.80;;;;;;5018304;28;20129;-72
2022/03/02 12:26:05;;;;;;;10.68;7.30;;;6.00;86.60;;;;;;5034550;28;20069;-72
2022/03/02 12:28:36;;;;;;;13.57;8.50;;;6.00;86.60;;;;;;5035578;28;20116;-72
2022/03/02 12:31:12;;;;;;;12.98;7.45;;;6.00;87.40;;;;;;5037951;28;20564;-72
2022/03/02 12:33:39;;;;;;;14.00;8.50;;;6.00;87.40;;;;;;5016602;28;20059;-72
2022/03/02 12:36:06;;;;;;;12.35;7.70;;;6.10;89.20;;;;;;5035692;28;20045;-72
2022/03/02 12:38:38;;;;;;;13.55;8.48;;;6.10;88.20;;;;;;5054799;28;20048;-72
2022/03/02 12:41:11;;;;;;;11.65;7.88;;;6.10;88.50;;;;;;5053118;28;20435;-72
2022/03/02 12:43:43;;;;;;;9.48;6.88;;;6.10;89.10;;;;;;5049160;28;20412;-72
2022/03/02 12:46:15;;;;;;;11.32;8.23;;;6.10;88.10;;;;;;5050382;28;20037;-72
2022/03/02 12:48:50;;;;;;;11.80;7.40;;;6.10;87.60;;;;;;5050106;28;20048;-72
2022/03/02 12:51:31;;;;;;;15.57;9.32;;;6.10;87.70;;;;;;5050672;28;20060;-72
2022/03/02 12:54:03;;;;;;;18.30;10.35;;;6.10;87.40;;;;;;5047268;28;20124;-72
2022/03/02 12:56:37;;;;;;;19.65;12.48;;;6.10;84.50;;;;;;5053646;28;20051;-72
2022/03/02 12:59:08;;;;;;;16.88;10.68;;;6.20;84.90;;;;;;5067648;28;20120;-72
2022/03/02 13:01:41;;;;;;;12.02;8.27;;;6.20;86.20;;;;;;5019022;28;20485;-72